Time;durP1;ratioP1;P1;durP2;ratioP2;P2;SDS_P1;SDS_P2;PMS_P1;PMS_P2;Temp;Humidity;BMP_temperature;BMP_pressure;BME280_temperature;BME280_humidity;BME280_pressure;Samples;Min_cycle;Max_cycle;Signal;HPM_P1;HPM_P2
2022/05/08 00:01:57;;;;;;;16.48;11.50;;;13.40;99.90;;;;;;5003381;28;20037;-59
2022/05/08 00:04:22;;;;;;;17.60;12.10;;;13.30;99.90;;;;;;5001806;28;20030;-59
2022/05/08 00:06:48;;;;;;;18.52;12.15;;;13.30;99.90;;;;;;5011382;28;20041;-58
2022/05/08 00:09:13;;;;;;;20.35;13.25;;;13.20;99.90;;;;;;5009431;28;20060;-60
2022/05/08 00:11:39;;;;;;;19.15;12.57;;;13.10;99.90;;;;;;5010307;28;20030;-60
2022/05/08 00:14:04;;;;;;;16.30;12.98;;;13.10;99.90;;;;;;5010489;28;20057;-57
2022/05/08 00:16:30;;;;;;;20.27;12.75;;;13.10;99.90;;;;;;5006415;28;20686;-58
2022/05/08 00:18:56;;;;;;;18.52;13.18;;;13.00;99.90;;;;;;4993007;28;20033;-57
2022/05/08 00:21:21;;;;;;;16.92;13.57;;;13.00;99.90;;;;;;5001917;28;20073;-59
2022/05/08 00:23:47;;;;;;;20.13;12.15;;;13.00;99.90;;;;;;4985952;28;20060;-60
2022/05/08 00:26:13;;;;;;;19.27;12.25;;;12.90;99.90;;;;;;4977042;28;20104;-60
2022/05/08 00:28:39;;;;;;;16.75;12.57;;;12.90;99.90;;;;;;4996414;28;20038;-59
2022/05/08 00:31:08;;;;;;;17.90;11.63;;;12.80;99.90;;;;;;4986136;28;20049;-59
2022/05/08 00:33:34;;;;;;;18.20;12.05;;;12.80;99.90;;;;;;5002043;28;20032;-59
2022/05/08 00:35:59;;;;;;;17.40;11.90;;;12.70;99.90;;;;;;5003860;28;20038;-59
2022/05/08 00:38:25;;;;;;;15.00;11.15;;;12.70;99.90;;;;;;4985047;28;20401;-59
2022/05/08 00:40:50;;;;;;;20.98;11.18;;;12.60;99.90;;;;;;4986214;28;20530;-57
2022/05/08 00:43:37;;;;;;;15.07;11.75;;;12.50;99.90;;;;;;4992585;28;20029;-58
2022/05/08 00:46:08;;;;;;;21.67;12.73;;;12.40;99.90;;;;;;4999870;28;20023;-59
2022/05/08 00:48:34;;;;;;;17.38;12.70;;;12.40;99.90;;;;;;4997240;28;20026;-59
2022/05/08 00:51:02;;;;;;;16.65;11.40;;;12.30;99.90;;;;;;5001074;28;20499;-57
2022/05/08 00:53:33;;;;;;;17.35;12.50;;;12.30;99.90;;;;;;4998180;28;20045;-59
2022/05/08 00:56:00;;;;;;;19.55;11.73;;;12.30;99.90;;;;;;4999856;28;20024;-59
2022/05/08 00:58:26;;;;;;;22.90;13.77;;;12.30;99.90;;;;;;4998822;28;20061;-59
2022/05/08 01:00:52;;;;;;;19.10;12.38;;;12.30;99.90;;;;;;5002540;28;20491;-57
2022/05/08 01:03:17;;;;;;;18.17;12.15;;;12.30;99.90;;;;;;4993480;28;20474;-58
2022/05/08 01:05:44;;;;;;;16.85;11.10;;;12.30;99.90;;;;;;4997680;28;20053;-60
2022/05/08 01:08:11;;;;;;;21.13;11.60;;;12.20;99.90;;;;;;4998894;28;20061;-60
2022/05/08 01:10:37;;;;;;;16.50;11.32;;;12.10;99.90;;;;;;4982254;28;20026;-60
2022/05/08 01:13:05;;;;;;;18.90;12.15;;;12.00;99.90;;;;;;4996094;28;20057;-59
2022/05/08 01:15:43;;;;;;;14.77;11.45;;;11.90;99.90;;;;;;4994369;28;20036;-60
2022/05/08 01:18:09;;;;;;;17.70;11.68;;;11.80;99.90;;;;;;4994598;28;20032;-59
2022/05/08 01:20:36;;;;;;;20.05;12.63;;;11.70;99.90;;;;;;5002349;28;20026;-59
2022/05/08 01:23:05;;;;;;;18.15;13.98;;;11.70;99.90;;;;;;4993882;28;20468;-60
2022/05/08 01:25:35;;;;;;;21.60;15.10;;;11.60;99.90;;;;;;4993362;28;20121;-59
2022/05/08 01:28:04;;;;;;;18.58;13.55;;;11.50;99.90;;;;;;4996773;28;20022;-59
2022/05/08 01:30:31;;;;;;;20.63;15.40;;;11.50;99.90;;;;;;4981806;28;20109;-60
2022/05/08 01:33:00;;;;;;;21.85;15.00;;;11.40;99.90;;;;;;5000413;28;20030;-58
2022/05/08 01:35:26;;;;;;;24.85;18.10;;;11.30;99.90;;;;;;4995024;28;20400;-60
2022/05/08 01:37:52;;;;;;;28.55;20.95;;;11.30;99.90;;;;;;4998032;28;20061;-59
2022/05/08 01:40:17;;;;;;;26.73;20.02;;;11.30;99.90;;;;;;4990159;28;20035;-59
2022/05/08 01:42:44;;;;;;;31.38;21.42;;;11.30;99.90;;;;;;4997894;28;20030;-58
2022/05/08 01:45:11;;;;;;;29.83;20.75;;;11.40;99.90;;;;;;4993447;28;20033;-59
2022/05/08 01:50:22;;;;;;;32.53;22.05;;;11.30;99.90;;;;;;4998522;28;20537;-59
2022/05/08 01:52:47;;;;;;;35.08;23.27;;;11.30;99.90;;;;;;4997869;28;20054;-59
2022/05/08 01:55:13;;;;;;;37.25;24.73;;;11.40;99.90;;;;;;4994104;28;20030;-60
2022/05/08 01:57:38;;;;;;;34.90;25.10;;;11.50;99.90;;;;;;4991963;28;20077;-58
2022/05/08 02:00:05;;;;;;;35.30;24.42;;;11.60;99.90;;;;;;5001288;28;20149;-60
2022/05/08 02:02:31;;;;;;;41.28;28.38;;;11.70;99.90;;;;;;4992863;28;20743;-60
2022/05/08 02:04:57;;;;;;;42.65;28.27;;;11.80;99.90;;;;;;4993348;28;20401;-59
2022/05/08 02:07:23;;;;;;;40.20;28.88;;;11.90;99.90;;;;;;5002611;28;20046;-59
2022/05/08 02:09:49;;;;;;;44.22;29.42;;;11.90;99.90;;;;;;5005827;28;20041;-60
2022/05/08 02:12:14;;;;;;;37.25;27.33;;;11.90;99.90;;;;;;5007839;28;20084;-58
2022/05/08 02:14:43;;;;;;;44.25;30.27;;;12.00;99.90;;;;;;5005961;28;20092;-59
2022/05/08 02:17:08;;;;;;;43.55;28.27;;;11.90;99.90;;;;;;5005715;28;20042;-60
2022/05/08 02:19:34;;;;;;;43.97;30.05;;;11.90;99.90;;;;;;5002303;28;20061;-58
2022/05/08 02:21:59;;;;;;;44.05;29.00;;;11.90;99.90;;;;;;5008708;28;20029;-59
2022/05/08 02:24:25;;;;;;;41.67;24.83;;;11.80;99.90;;;;;;4999242;28;20030;-60
2022/05/08 02:26:50;;;;;;;36.10;24.85;;;11.80;99.90;;;;;;5000002;28;20045;-56
2022/05/08 02:29:16;;;;;;;35.08;26.15;;;11.70;99.90;;;;;;5004158;28;20026;-61
2022/05/08 02:31:41;;;;;;;33.72;24.17;;;11.60;99.90;;;;;;4991420;28;20030;-60
2022/05/08 02:34:07;;;;;;;29.00;22.70;;;11.50;99.90;;;;;;5005127;28;20026;-60
2022/05/08 02:36:32;;;;;;;33.75;23.40;;;11.40;99.90;;;;;;5007555;28;20030;-60
2022/05/08 02:38:58;;;;;;;36.70;23.33;;;11.30;99.90;;;;;;5007835;28;20029;-60
2022/05/08 02:41:23;;;;;;;32.95;22.80;;;11.30;99.90;;;;;;5009281;28;20029;-60
2022/05/08 02:43:49;;;;;;;34.72;24.70;;;11.20;99.90;;;;;;5003632;28;20515;-60
2022/05/08 02:46:14;;;;;;;37.60;26.20;;;11.10;99.90;;;;;;4999547;28;20033;-59
2022/05/08 02:48:40;;;;;;;40.20;27.08;;;11.00;99.90;;;;;;5008380;28;20030;-58
2022/05/08 02:51:06;;;;;;;52.33;33.17;;;11.00;99.90;;;;;;5011116;28;20034;-60
2022/05/08 02:53:32;;;;;;;56.17;33.45;;;11.20;99.90;;;;;;5007613;28;20022;-60
2022/05/08 02:58:41;;;;;;;;;;;11.30;99.90;;;;;;5011158;28;20088;-60
2022/05/08 03:01:07;;;;;;;49.75;31.88;;;11.30;99.90;;;;;;5011838;28;20333;-60
2022/05/08 03:03:34;;;;;;;52.25;33.78;;;11.30;99.90;;;;;;5008493;28;20057;-60
2022/05/08 03:05:59;;;;;;;51.03;34.50;;;11.30;99.90;;;;;;5009259;28;20030;-60
2022/05/08 03:08:25;;;;;;;42.35;29.33;;;11.30;99.90;;;;;;5012382;28;20038;-58
2022/05/08 03:13:40;;;;;;;47.90;29.65;;;11.20;99.90;;;;;;5000374;28;20066;-60
2022/05/08 03:16:07;;;;;;;47.25;30.38;;;11.20;99.90;;;;;;5006870;28;20492;-60
2022/05/08 03:18:34;;;;;;;36.50;27.40;;;11.10;99.90;;;;;;5010358;28;20030;-60
2022/05/08 03:21:00;;;;;;;41.80;27.75;;;11.00;99.90;;;;;;5012269;28;20033;-60
2022/05/08 03:23:27;;;;;;;36.35;26.88;;;11.00;99.90;;;;;;5007822;28;20496;-59
2022/05/08 03:25:52;;;;;;;42.70;29.85;;;10.90;99.90;;;;;;4994184;28;20065;-60
2022/05/08 03:28:18;;;;;;;51.45;33.67;;;10.90;99.90;;;;;;5010019;28;20065;-60
2022/05/08 03:30:44;;;;;;;53.60;34.45;;;10.90;99.90;;;;;;4993538;28;20038;-60
2022/05/08 03:33:10;;;;;;;54.22;35.83;;;10.90;99.90;;;;;;5006994;28;20022;-60
2022/05/08 03:35:39;;;;;;;47.00;31.00;;;11.00;99.90;;;;;;4998965;28;20455;-59
2022/05/08 03:38:08;;;;;;;44.95;31.52;;;11.10;99.90;;;;;;5012123;28;20032;-59
2022/05/08 03:40:34;;;;;;;40.95;28.55;;;11.10;99.90;;;;;;4992581;28;20090;-60
2022/05/08 03:43:01;;;;;;;36.72;24.58;;;11.00;99.90;;;;;;5013399;28;20036;-59
2022/05/08 03:45:27;;;;;;;37.65;25.00;;;10.90;99.90;;;;;;5000377;28;20080;-59
2022/05/08 03:47:53;;;;;;;35.83;25.83;;;10.80;99.90;;;;;;5012468;28;20026;-60
2022/05/08 03:50:22;;;;;;;35.13;25.25;;;10.70;99.90;;;;;;5011370;28;20069;-60
2022/05/08 03:52:48;;;;;;;35.95;25.20;;;10.70;99.90;;;;;;5007001;28;20046;-60
2022/05/08 03:55:18;;;;;;;41.10;25.92;;;10.60;99.90;;;;;;4997977;28;20113;-58
2022/05/08 03:57:44;;;;;;;35.85;26.55;;;10.50;99.90;;;;;;5009204;28;20034;-60
2022/05/08 04:00:12;;;;;;;39.20;27.40;;;10.50;99.90;;;;;;5009798;28;20018;-60
2022/05/08 04:02:37;;;;;;;38.40;25.88;;;10.50;99.90;;;;;;5009070;28;20041;-60
2022/05/08 04:05:04;;;;;;;39.20;25.75;;;10.50;99.90;;;;;;5009662;28;20065;-59
2022/05/08 04:07:30;;;;;;;38.05;26.92;;;10.50;99.90;;;;;;5009421;28;20044;-60
2022/05/08 04:09:55;;;;;;;38.28;25.98;;;10.40;99.90;;;;;;5000493;28;20080;-60
2022/05/08 04:12:21;;;;;;;35.85;25.52;;;10.40;99.90;;;;;;5008820;28;20503;-59
2022/05/08 04:14:47;;;;;;;46.40;28.27;;;10.40;99.90;;;;;;5003706;28;20040;-60
2022/05/08 04:17:13;;;;;;;38.42;26.80;;;10.40;99.90;;;;;;5010345;28;20022;-59
2022/05/08 04:19:38;;;;;;;39.90;26.55;;;10.50;99.90;;;;;;5005691;28;20049;-60
2022/05/08 04:24:49;;;;;;;40.95;28.83;;;10.50;99.90;;;;;;5009679;28;20041;-60
2022/05/08 04:27:14;;;;;;;41.90;29.35;;;10.60;99.90;;;;;;5009765;28;20026;-60
2022/05/08 04:29:40;;;;;;;42.85;29.52;;;10.70;99.90;;;;;;5006282;28;20054;-60
2022/05/08 04:32:06;;;;;;;50.90;31.80;;;10.90;99.90;;;;;;4994977;28;20495;-60
2022/05/08 04:34:31;;;;;;;42.55;30.67;;;11.00;99.90;;;;;;5007333;28;20113;-59
2022/05/08 04:36:57;;;;;;;42.15;28.20;;;11.10;99.90;;;;;;5006966;28;20104;-59
2022/05/08 04:39:22;;;;;;;40.05;27.83;;;11.20;99.90;;;;;;5002989;28;20523;-60
2022/05/08 04:41:48;;;;;;;35.30;25.90;;;11.30;99.90;;;;;;5010213;28;20033;-60
2022/05/08 04:44:13;;;;;;;37.78;27.13;;;11.40;99.90;;;;;;5009353;28;20033;-60
2022/05/08 04:46:39;;;;;;;47.65;30.98;;;11.60;99.90;;;;;;5006763;28;20463;-60
2022/05/08 04:49:04;;;;;;;38.67;25.48;;;11.80;99.90;;;;;;5007714;28;20030;-60
2022/05/08 04:51:31;;;;;;;35.08;26.08;;;11.90;99.90;;;;;;5005013;28;20050;-60
2022/05/08 04:53:56;;;;;;;33.17;22.48;;;12.00;99.90;;;;;;4999832;28;20037;-60
2022/05/08 04:56:22;;;;;;;33.28;23.17;;;12.10;99.90;;;;;;5006579;28;20021;-60
2022/05/08 04:58:48;;;;;;;28.73;20.35;;;12.30;99.90;;;;;;5010800;28;20022;-60
2022/05/08 05:01:14;;;;;;;27.73;19.73;;;12.50;99.90;;;;;;5010881;28;20049;-60
2022/05/08 05:03:41;;;;;;;25.63;17.58;;;12.80;99.90;;;;;;5005978;28;20065;-61
2022/05/08 05:06:07;;;;;;;26.90;17.55;;;13.30;99.90;;;;;;5006094;28;20586;-61
2022/05/08 05:08:32;;;;;;;20.75;14.90;;;14.00;99.90;;;;;;5009695;28;20134;-60
2022/05/08 05:10:58;;;;;;;18.00;13.52;;;14.50;99.90;;;;;;5010919;28;20084;-60
2022/05/08 05:13:24;;;;;;;17.60;11.73;;;15.20;99.90;;;;;;5006405;28;20046;-60
2022/05/08 05:15:49;;;;;;;17.92;12.02;;;15.80;99.90;;;;;;5005073;28;20025;-60
2022/05/08 05:18:15;;;;;;;18.45;12.25;;;16.50;99.90;;;;;;5007452;28;20030;-61
2022/05/08 05:20:41;;;;;;;17.63;10.88;;;16.70;99.90;;;;;;5009836;28;20022;-61
2022/05/08 05:23:07;;;;;;;15.02;10.43;;;17.00;99.90;;;;;;5007826;28;20442;-60
2022/05/08 05:25:32;;;;;;;11.88;9.85;;;17.30;99.90;;;;;;5007108;28;20026;-60
2022/05/08 05:27:58;;;;;;;17.17;10.45;;;17.80;99.90;;;;;;5009420;28;20033;-60
2022/05/08 05:30:24;;;;;;;12.85;9.38;;;18.20;99.90;;;;;;4987694;28;20855;-61
2022/05/08 05:32:50;;;;;;;14.35;11.35;;;18.20;99.00;;;;;;5001983;28;20084;-61
2022/05/08 05:35:15;;;;;;;14.15;9.75;;;18.20;98.80;;;;;;5006299;28;20042;-60
2022/05/08 05:37:41;;;;;;;12.88;9.05;;;18.60;99.30;;;;;;4999560;28;20492;-60
2022/05/08 05:40:07;;;;;;;14.40;11.10;;;18.90;97.60;;;;;;5007694;28;20044;-61
2022/05/08 05:42:33;;;;;;;15.40;10.32;;;19.40;97.30;;;;;;5004076;28;20026;-60
2022/05/08 05:44:59;;;;;;;18.15;11.60;;;19.40;95.80;;;;;;5007904;28;20506;-61
2022/05/08 05:50:09;;;;;;;17.88;9.65;;;20.30;93.20;;;;;;5003864;28;20044;-61
2022/05/08 05:52:36;;;;;;;13.88;9.88;;;20.10;93.40;;;;;;5003228;28;20468;-59
2022/05/08 05:55:04;;;;;;;12.95;8.50;;;20.00;93.80;;;;;;5001956;28;20065;-60
2022/05/08 05:57:36;;;;;;;9.70;7.72;;;20.50;93.30;;;;;;5000777;28;20033;-61
2022/05/08 06:00:10;;;;;;;12.48;9.63;;;21.00;91.50;;;;;;5007057;28;20022;-61
2022/05/08 06:02:36;;;;;;;14.15;8.27;;;21.10;91.00;;;;;;5007192;28;20430;-61
2022/05/08 06:05:02;;;;;;;12.77;7.80;;;21.40;92.20;;;;;;5007676;28;20037;-61
2022/05/08 06:07:27;;;;;;;10.23;7.20;;;21.70;90.90;;;;;;5008221;28;20026;-61
2022/05/08 06:09:53;;;;;;;14.07;7.68;;;22.10;89.30;;;;;;5006997;28;20399;-61
2022/05/08 06:12:18;;;;;;;14.68;8.77;;;22.00;87.30;;;;;;5007407;28;20033;-61
2022/05/08 06:14:46;;;;;;;10.85;8.45;;;21.70;87.30;;;;;;5007237;28;20026;-61
2022/05/08 06:17:12;;;;;;;12.27;8.48;;;21.50;86.30;;;;;;5000484;28;20023;-61
2022/05/08 06:19:38;;;;;;;10.02;8.32;;;21.50;88.50;;;;;;5007844;28;20056;-61
2022/05/08 06:22:03;;;;;;;11.98;8.27;;;21.30;87.30;;;;;;5012090;28;20077;-61
2022/05/08 06:24:29;;;;;;;13.38;9.30;;;20.90;90.30;;;;;;5009533;28;20048;-61
2022/05/08 06:26:54;;;;;;;13.30;9.13;;;20.30;91.50;;;;;;5012986;28;20033;-56
2022/05/08 06:29:20;;;;;;;12.40;9.20;;;20.60;91.50;;;;;;5009911;28;20045;-60
2022/05/08 06:31:46;;;;;;;11.27;9.38;;;21.10;90.70;;;;;;4994626;28;20080;-60
2022/05/08 06:34:12;;;;;;;17.02;9.10;;;21.60;86.50;;;;;;5010321;28;20375;-61
2022/05/08 06:36:38;;;;;;;12.55;9.20;;;21.80;85.50;;;;;;5011417;28;20034;-61
2022/05/08 06:39:03;;;;;;;15.90;9.40;;;21.60;85.00;;;;;;5002767;28;20030;-61
2022/05/08 06:41:29;;;;;;;14.23;9.65;;;21.40;86.00;;;;;;5011047;28;20026;-61
2022/05/08 06:43:55;;;;;;;12.48;10.05;;;20.60;87.90;;;;;;4999875;28;20053;-60
2022/05/08 06:46:20;;;;;;;16.73;10.30;;;19.70;90.60;;;;;;5009488;28;20527;-60
2022/05/08 06:48:47;;;;;;;14.88;10.55;;;19.30;92.00;;;;;;5010415;28;20479;-61
2022/05/08 06:51:13;;;;;;;15.45;10.75;;;19.30;92.40;;;;;;5008281;28;20504;-59
2022/05/08 06:53:39;;;;;;;18.88;12.05;;;18.90;93.60;;;;;;5006629;28;20105;-61
2022/05/08 06:56:05;;;;;;;14.98;11.25;;;18.30;94.10;;;;;;5007507;28;20141;-61
2022/05/08 06:58:30;;;;;;;17.10;11.90;;;18.40;93.80;;;;;;5002615;28;20165;-58
2022/05/08 07:03:40;;;;;;;17.33;11.30;;;17.70;96.90;;;;;;5011629;28;20082;-61
2022/05/08 07:06:06;;;;;;;16.90;11.90;;;17.90;96.70;;;;;;5012799;28;20034;-61
2022/05/08 07:08:33;;;;;;;18.58;11.73;;;18.10;96.30;;;;;;5009543;28;20043;-60
2022/05/08 07:11:00;;;;;;;14.50;11.32;;;18.30;96.70;;;;;;5009347;28;20061;-61
2022/05/08 07:13:26;;;;;;;14.85;11.32;;;18.20;96.80;;;;;;5010174;28;20093;-60
2022/05/08 07:15:52;;;;;;;15.57;11.68;;;18.30;96.00;;;;;;5012084;28;20022;-60
2022/05/08 07:18:19;;;;;;;17.60;11.27;;;18.40;95.70;;;;;;5005440;28;20099;-61
2022/05/08 07:20:44;;;;;;;16.63;11.77;;;18.00;96.60;;;;;;5008168;28;20022;-59
2022/05/08 07:23:11;;;;;;;18.42;10.05;;;18.10;97.30;;;;;;5010201;28;20380;-59
2022/05/08 07:25:38;;;;;;;14.32;11.20;;;18.80;96.80;;;;;;5007123;28;20400;-61
2022/05/08 07:28:04;;;;;;;21.20;11.70;;;19.20;95.30;;;;;;5010732;28;20030;-60
2022/05/08 07:30:29;;;;;;;15.82;12.45;;;19.50;94.60;;;;;;5004662;28;20033;-61
2022/05/08 07:32:56;;;;;;;14.98;10.38;;;19.80;92.90;;;;;;4987555;28;20035;-59
2022/05/08 07:38:06;;;;;;;14.52;10.73;;;20.20;92.20;;;;;;5003379;28;20084;-61
2022/05/08 07:40:33;;;;;;;13.80;10.15;;;20.40;92.00;;;;;;5003798;28;20030;-58
2022/05/08 07:42:59;;;;;;;16.77;11.18;;;20.40;91.30;;;;;;5006377;28;20439;-61
2022/05/08 07:45:24;;;;;;;16.05;10.55;;;20.30;90.90;;;;;;5009232;28;20088;-61
2022/05/08 07:47:50;;;;;;;13.48;10.98;;;20.10;92.00;;;;;;5011780;28;20030;-61
2022/05/08 07:50:15;;;;;;;15.02;11.13;;;19.90;92.70;;;;;;5010745;28;20029;-61
2022/05/08 07:52:41;;;;;;;14.20;11.32;;;20.00;92.60;;;;;;5004421;28;20484;-61
2022/05/08 07:55:07;;;;;;;15.90;11.65;;;19.70;92.60;;;;;;5004301;28;20030;-61
2022/05/08 07:57:33;;;;;;;14.80;11.05;;;20.10;91.40;;;;;;5010771;28;20014;-61
2022/05/08 07:59:59;;;;;;;13.95;11.18;;;19.80;91.70;;;;;;5009288;28;20037;-61
2022/05/08 08:02:25;;;;;;;13.93;11.65;;;19.70;92.40;;;;;;5009315;28;20558;-61
2022/05/08 08:04:51;;;;;;;16.02;11.10;;;20.40;92.00;;;;;;5006771;28;20084;-61
2022/05/08 08:07:17;;;;;;;14.57;10.85;;;20.90;90.50;;;;;;5010620;28;20026;-61
2022/05/08 08:09:42;;;;;;;14.25;11.20;;;21.00;90.00;;;;;;5008903;28;20309;-61
2022/05/08 08:12:08;;;;;;;14.38;10.70;;;21.10;89.40;;;;;;5005787;28;20101;-61
2022/05/08 08:14:34;;;;;;;14.25;10.85;;;21.20;88.20;;;;;;5004553;28;20022;-61
2022/05/08 08:16:59;;;;;;;16.10;11.38;;;21.40;89.80;;;;;;5005182;28;20125;-61
2022/05/08 08:19:25;;;;;;;16.20;11.27;;;22.10;85.00;;;;;;5008942;28;20501;-61
2022/05/08 08:21:50;;;;;;;16.80;11.55;;;22.80;83.20;;;;;;5010256;28;20030;-62
2022/05/08 08:24:16;;;;;;;14.15;10.60;;;23.60;78.50;;;;;;5008441;28;20480;-59
2022/05/08 08:26:42;;;;;;;11.43;10.05;;;23.50;78.40;;;;;;5010107;28;20487;-59
2022/05/08 08:29:08;;;;;;;15.95;11.38;;;23.50;79.40;;;;;;5003262;28;20045;-59
2022/05/08 08:31:33;;;;;;;15.52;11.75;;;23.10;77.70;;;;;;4983406;28;20033;-60
2022/05/08 08:33:59;;;;;;;16.65;11.45;;;22.20;80.70;;;;;;4999332;28;20477;-59
2022/05/08 08:36:24;;;;;;;16.10;12.20;;;21.50;83.80;;;;;;4997478;28;20072;-61
2022/05/08 08:38:50;;;;;;;15.20;11.40;;;21.70;85.40;;;;;;4995887;28;20109;-61
2022/05/08 08:41:21;;;;;;;15.25;10.50;;;22.70;83.20;;;;;;5009114;28;20403;-60
2022/05/08 08:49:22;;;;;;;13.32;11.82;;;24.20;75.60;;;;;;5008270;28;20028;-60
2022/05/08 08:51:48;;;;;;;14.90;11.85;;;23.90;76.10;;;;;;5002984;28;20026;-60
2022/05/08 08:54:19;;;;;;;13.82;10.90;;;24.20;74.30;;;;;;5003028;28;20014;-60
2022/05/08 08:56:45;;;;;;;15.45;11.20;;;25.10;72.90;;;;;;5009373;28;20053;-59
2022/05/08 08:59:10;;;;;;;14.70;11.55;;;25.50;70.70;;;;;;5010157;28;20026;-60
2022/05/08 09:01:43;;;;;;;14.80;11.50;;;25.00;71.00;;;;;;5010887;28;20029;-59
2022/05/08 09:04:09;;;;;;;12.93;11.38;;;25.10;71.50;;;;;;5002398;28;20041;-59
2022/05/08 09:06:42;;;;;;;15.18;12.35;;;24.40;72.10;;;;;;5010437;28;20034;-60
2022/05/08 09:09:21;;;;;;;15.90;11.35;;;24.00;73.50;;;;;;5002211;28;20092;-59
2022/05/08 09:11:46;;;;;;;15.18;11.75;;;24.40;75.00;;;;;;4998511;28;20388;-60
2022/05/08 09:14:27;;;;;;;12.38;10.25;;;25.30;71.70;;;;;;5005507;28;20030;-60
2022/05/08 09:16:53;;;;;;;13.77;10.93;;;26.00;68.80;;;;;;4991320;28;20029;-59
2022/05/08 09:19:37;;;;;;;15.80;11.05;;;25.20;69.40;;;;;;5007954;28;20072;-59
2022/05/08 09:22:04;;;;;;;16.75;12.13;;;26.00;68.70;;;;;;5008980;28;20029;-59
2022/05/08 09:24:30;;;;;;;15.77;12.10;;;25.80;67.30;;;;;;5003626;28;20034;-60
2022/05/08 09:27:09;;;;;;;12.65;10.07;;;25.00;68.20;;;;;;5009535;28;20017;-55
2022/05/08 09:29:35;;;;;;;20.90;12.27;;;25.20;70.60;;;;;;5007646;28;20099;-59
2022/05/08 09:32:01;;;;;;;15.68;11.07;;;24.50;69.80;;;;;;4990264;28;20515;-60
2022/05/08 09:34:26;;;;;;;14.68;10.23;;;23.70;71.00;;;;;;5000687;28;20392;-59
2022/05/08 09:37:05;;;;;;;15.98;10.95;;;23.60;73.30;;;;;;5005121;28;20325;-60
2022/05/08 09:39:31;;;;;;;13.15;10.75;;;24.00;71.50;;;;;;4999330;28;20058;-60
2022/05/08 09:41:57;;;;;;;14.50;9.95;;;24.70;71.40;;;;;;5004592;28;20072;-60
2022/05/08 09:44:22;;;;;;;13.27;9.80;;;24.70;70.80;;;;;;5004010;28;20052;-60
2022/05/08 09:46:49;;;;;;;12.80;9.00;;;24.50;71.80;;;;;;5005952;28;20025;-59
2022/05/08 09:49:24;;;;;;;12.43;8.45;;;25.20;69.90;;;;;;5002301;28;20053;-60
2022/05/08 09:51:51;;;;;;;12.90;7.57;;;25.30;68.90;;;;;;5003959;28;20117;-59
2022/05/08 09:54:18;;;;;;;15.48;9.23;;;25.20;68.80;;;;;;4997533;28;20030;-60
2022/05/08 09:56:47;;;;;;;11.10;8.25;;;24.80;68.60;;;;;;5005591;28;20087;-59
2022/05/08 09:59:13;;;;;;;14.10;7.72;;;24.80;69.10;;;;;;4999837;28;20019;-59
2022/05/08 10:01:39;;;;;;;11.13;7.32;;;24.10;69.00;;;;;;5002522;28;20030;-59
2022/05/08 10:04:05;;;;;;;9.70;6.68;;;24.20;67.40;;;;;;5005004;28;20026;-59
2022/05/08 10:06:33;;;;;;;11.05;6.35;;;23.70;68.60;;;;;;5005753;28;20127;-60
2022/05/08 10:14:30;;;;;;;9.65;6.53;;;23.30;68.80;;;;;;5004448;28;20028;-60
2022/05/08 10:17:02;;;;;;;10.30;7.22;;;22.80;70.40;;;;;;5002626;28;20104;-59
2022/05/08 10:19:27;;;;;;;13.65;7.72;;;22.30;71.80;;;;;;5003816;28;20038;-60
2022/05/08 10:21:55;;;;;;;13.75;6.93;;;21.70;75.10;;;;;;5006824;28;20056;-61
2022/05/08 10:24:31;;;;;;;14.70;8.20;;;21.60;75.30;;;;;;5005501;28;20029;-60
2022/05/08 10:27:28;;;;;;;15.75;7.82;;;21.00;76.80;;;;;;5008221;28;20022;-58
2022/05/08 10:29:53;;;;;;;14.60;7.75;;;20.50;78.90;;;;;;5004818;28;20065;-61
2022/05/08 10:32:28;;;;;;;14.73;6.72;;;20.40;80.40;;;;;;4990078;28;20074;-61
2022/05/08 10:35:16;;;;;;;11.50;6.68;;;20.50;80.80;;;;;;5004755;28;20026;-61
2022/05/08 10:37:49;;;;;;;16.05;7.53;;;20.80;80.60;;;;;;5008989;28;20030;-61
2022/05/08 10:40:24;;;;;;;19.13;6.28;;;20.80;80.60;;;;;;5006889;28;20026;-60
2022/05/08 10:42:56;;;;;;;12.65;6.18;;;21.00;80.80;;;;;;5004766;28;20512;-61
2022/05/08 10:45:31;;;;;;;11.43;5.68;;;21.00;78.50;;;;;;5008099;28;20038;-61
2022/05/08 10:47:57;;;;;;;15.55;6.88;;;20.90;79.10;;;;;;5004909;28;20042;-61
2022/05/08 10:50:23;;;;;;;14.30;6.03;;;20.80;78.30;;;;;;5005321;28;20038;-60
2022/05/08 10:52:50;;;;;;;11.38;6.28;;;20.70;78.80;;;;;;5006226;28;20072;-60
2022/05/08 10:55:17;;;;;;;15.77;6.22;;;20.60;77.90;;;;;;5009116;28;20378;-61
2022/05/08 10:57:47;;;;;;;15.65;5.40;;;20.60;79.10;;;;;;5010695;28;20026;-60
2022/05/08 11:00:17;;;;;;;14.23;5.93;;;20.60;79.10;;;;;;4994803;28;20057;-61
2022/05/08 11:02:45;;;;;;;16.23;6.68;;;20.70;81.40;;;;;;5008915;28;20037;-61
2022/05/08 11:05:13;;;;;;;11.60;5.55;;;21.00;78.60;;;;;;4999735;28;20491;-61
2022/05/08 11:07:40;;;;;;;13.98;5.90;;;21.10;77.40;;;;;;5017043;28;20040;-61
2022/05/08 11:10:27;;;;;;;15.40;5.60;;;20.90;78.70;;;;;;5011133;28;20026;-61
2022/05/08 11:13:09;;;;;;;17.92;6.93;;;21.00;79.30;;;;;;5011703;28;20110;-60
2022/05/08 11:15:38;;;;;;;11.13;5.20;;;20.90;77.10;;;;;;5009777;28;20021;-61
2022/05/08 11:18:11;;;;;;;12.73;5.13;;;20.80;79.30;;;;;;4998363;28;20030;-59
2022/05/08 11:20:44;;;;;;;12.88;6.13;;;20.70;78.80;;;;;;5010890;28;20092;-60
2022/05/08 11:23:13;;;;;;;10.77;6.20;;;20.80;77.90;;;;;;5008215;28;20072;-60
2022/05/08 11:25:39;;;;;;;16.02;5.35;;;20.70;77.40;;;;;;4997154;28;20435;-59
2022/05/08 11:28:11;;;;;;;14.18;5.10;;;20.60;79.20;;;;;;4999056;28;20041;-58
2022/05/08 11:30:37;;;;;;;17.48;6.38;;;20.60;78.10;;;;;;5006575;28;20531;-61
2022/05/08 11:36:08;;;;;;;14.70;5.65;;;20.60;78.20;;;;;;4996832;28;20031;-60
2022/05/08 11:38:44;;;;;;;15.07;4.88;;;20.60;79.80;;;;;;5004267;28;20014;-60
2022/05/08 11:41:14;;;;;;;9.02;4.82;;;20.80;78.40;;;;;;5001241;28;20033;-60
2022/05/08 11:43:44;;;;;;;10.18;5.88;;;20.80;76.80;;;;;;4999439;28;20034;-59
2022/05/08 11:46:32;;;;;;;12.27;5.13;;;20.80;76.70;;;;;;5011342;28;20083;-59
2022/05/08 11:48:57;;;;;;;11.50;4.90;;;20.60;79.20;;;;;;5007726;28;20463;-58
2022/05/08 11:51:23;;;;;;;12.43;5.30;;;20.90;77.30;;;;;;5012509;28;20022;-61
2022/05/08 11:53:52;;;;;;;14.55;5.88;;;20.80;76.40;;;;;;4994700;28;20050;-61
2022/05/08 11:56:32;;;;;;;15.35;5.00;;;20.60;78.60;;;;;;5010653;28;20026;-59
2022/05/08 11:59:00;;;;;;;9.48;4.38;;;20.70;77.30;;;;;;4995944;28;20108;-60
2022/05/08 12:01:31;;;;;;;14.52;4.78;;;20.50;79.00;;;;;;5009074;28;20080;-58
2022/05/08 12:04:18;;;;;;;11.07;4.88;;;20.60;78.70;;;;;;5002334;28;20030;-60
2022/05/08 12:07:05;;;;;;;12.80;4.60;;;20.70;76.70;;;;;;4995049;28;20022;-61
2022/05/08 12:09:37;;;;;;;15.73;5.15;;;20.80;78.00;;;;;;4996109;28;20116;-61
2022/05/08 12:12:25;;;;;;;10.00;3.92;;;20.70;77.30;;;;;;4999583;28;20022;-60
2022/05/08 12:14:51;;;;;;;12.73;3.75;;;20.80;79.30;;;;;;4994092;28;20036;-61
2022/05/08 12:17:16;;;;;;;14.18;4.85;;;20.70;77.10;;;;;;5011159;28;20105;-60
2022/05/08 12:19:50;;;;;;;12.52;4.90;;;20.40;77.70;;;;;;5013855;28;20121;-60
2022/05/08 12:22:20;;;;;;;10.23;3.83;;;20.30;78.20;;;;;;5002629;28;20045;-59
2022/05/08 12:24:46;;;;;;;11.77;4.00;;;20.40;78.10;;;;;;5007573;28;20159;-60
2022/05/08 12:27:12;;;;;;;15.77;4.38;;;20.50;77.20;;;;;;5008139;28;20399;-61
2022/05/08 12:29:38;;;;;;;11.15;3.70;;;20.60;77.90;;;;;;5006159;28;20626;-60
2022/05/08 12:32:04;;;;;;;15.80;5.95;;;20.60;75.50;;;;;;4991770;28;20065;-61
2022/05/08 12:34:29;;;;;;;8.05;3.03;;;20.80;76.10;;;;;;5006645;28;20506;-60
2022/05/08 12:36:55;;;;;;;13.07;3.88;;;20.80;77.10;;;;;;5004120;28;20161;-60
2022/05/08 12:39:20;;;;;;;9.05;3.72;;;20.70;75.10;;;;;;5006651;28;20083;-61
2022/05/08 12:41:46;;;;;;;11.60;3.30;;;20.40;74.70;;;;;;5005892;28;20041;-61
2022/05/08 12:44:13;;;;;;;8.57;3.47;;;20.20;77.40;;;;;;5003844;28;20034;-60
2022/05/08 12:46:38;;;;;;;5.43;2.90;;;20.20;74.90;;;;;;5006505;28;20050;-60
2022/05/08 12:49:04;;;;;;;6.80;2.95;;;20.10;76.50;;;;;;5004816;28;20132;-59
2022/05/08 12:51:35;;;;;;;9.20;3.42;;;20.20;75.60;;;;;;5007752;28;20053;-60
2022/05/08 12:54:02;;;;;;;10.90;3.75;;;20.30;74.70;;;;;;5000564;28;20064;-60
2022/05/08 12:56:29;;;;;;;6.57;2.70;;;20.30;73.10;;;;;;5005624;28;20034;-61
2022/05/08 13:01:39;;;;;;;5.45;2.28;;;20.40;75.50;;;;;;4997335;28;20041;-60
2022/05/08 13:04:06;;;;;;;6.38;2.13;;;20.50;75.70;;;;;;4994324;28;20038;-60
2022/05/08 13:06:32;;;;;;;10.57;3.28;;;20.60;73.40;;;;;;5007191;28;20104;-60
2022/05/08 13:08:57;;;;;;;6.97;2.65;;;20.50;72.60;;;;;;5004576;28;20406;-60